Terminal Aerodrome Forecast
Issued by NWS Glasgow, MT

Home | Current Version | Previous Version | Text Only | Print | Product List | Glossary On
Versions: 1 2 3 4 5 6 7 8 9 10 11 12 13 14 15
912
FTUS45 KGGW 241746 CCA
TAFGGW
TAF COR
KGGW 241746Z 2418/2518 26027G36KT P6SM SCT100
     FM242300 27031G44KT P6SM SCT120
     FM250300 26012KT P6SM FEW210
     FM250700 25014G23KT P6SM BKN090
     FM251200 27018G29KT P6SM BKN028=

USA.gov is the U.S. government's official web portal to all federal, state and local government web resources and services.